sensor_id;sensor_type;location;lat;lon;timestamp;P1;durP1;ratioP1;P2;durP2;ratioP2
56013;SDS011;41893;55.868;37.632;2022-08-27T00:01:13;54.08;;;25.00;;
56013;SDS011;41893;55.868;37.632;2022-08-27T00:03:45;51.40;;;26.67;;
56013;SDS011;41893;55.868;37.632;2022-08-27T00:06:14;65.18;;;28.35;;
56013;SDS011;41893;55.868;37.632;2022-08-27T00:08:41;52.50;;;27.00;;
56013;SDS011;41893;55.868;37.632;2022-08-27T00:11:08;47.60;;;27.55;;
56013;SDS011;41893;55.868;37.632;2022-08-27T00:13:34;63.60;;;27.10;;
56013;SDS011;41893;55.868;37.632;2022-08-27T00:16:01;61.97;;;26.30;;
56013;SDS011;41893;55.868;37.632;2022-08-27T00:18:31;57.10;;;27.63;;
56013;SDS011;41893;55.868;37.632;2022-08-27T00:20:57;72.75;;;29.92;;
56013;SDS011;41893;55.868;37.632;2022-08-27T00:23:26;65.38;;;27.77;;
56013;SDS011;41893;55.868;37.632;2022-08-27T00:25:53;58.90;;;26.80;;
56013;SDS011;41893;55.868;37.632;2022-08-27T00:28:19;67.22;;;27.67;;
56013;SDS011;41893;55.868;37.632;2022-08-27T00:30:45;56.38;;;25.75;;
56013;SDS011;41893;55.868;37.632;2022-08-27T00:33:10;82.13;;;27.17;;
56013;SDS011;41893;55.868;37.632;2022-08-27T00:35:36;62.80;;;27.48;;
56013;SDS011;41893;55.868;37.632;2022-08-27T00:38:02;53.35;;;27.17;;
56013;SDS011;41893;55.868;37.632;2022-08-27T00:40:30;66.10;;;26.83;;
56013;SDS011;41893;55.868;37.632;2022-08-27T00:42:58;50.28;;;26.08;;
56013;SDS011;41893;55.868;37.632;2022-08-27T00:45:27;54.80;;;26.02;;
56013;SDS011;41893;55.868;37.632;2022-08-27T00:47:57;63.70;;;29.17;;
56013;SDS011;41893;55.868;37.632;2022-08-27T00:50:35;58.65;;;29.25;;
56013;SDS011;41893;55.868;37.632;2022-08-27T00:53:09;58.55;;;27.17;;
56013;SDS011;41893;55.868;37.632;2022-08-27T00:55:42;70.40;;;29.77;;
56013;SDS011;41893;55.868;37.632;2022-08-27T00:58:18;82.15;;;30.58;;
56013;SDS011;41893;55.868;37.632;2022-08-27T01:00:53;49.17;;;27.30;;
56013;SDS011;41893;55.868;37.632;2022-08-27T01:03:20;55.78;;;29.33;;
56013;SDS011;41893;55.868;37.632;2022-08-27T01:05:46;62.33;;;28.23;;
56013;SDS011;41893;55.868;37.632;2022-08-27T01:08:14;49.63;;;28.15;;
56013;SDS011;41893;55.868;37.632;2022-08-27T01:10:43;63.88;;;27.63;;
56013;SDS011;41893;55.868;37.632;2022-08-27T01:13:11;62.15;;;28.45;;
56013;SDS011;41893;55.868;37.632;2022-08-27T01:15:39;70.47;;;30.58;;
56013;SDS011;41893;55.868;37.632;2022-08-27T01:18:06;65.65;;;29.35;;
56013;SDS011;41893;55.868;37.632;2022-08-27T01:20:56;54.63;;;28.70;;
56013;SDS011;41893;55.868;37.632;2022-08-27T01:25:58;65.70;;;31.40;;
56013;SDS011;41893;55.868;37.632;2022-08-27T01:28:24;64.32;;;29.27;;
56013;SDS011;41893;55.868;37.632;2022-08-27T01:30:51;65.15;;;31.38;;
56013;SDS011;41893;55.868;37.632;2022-08-27T01:33:18;72.72;;;29.65;;
56013;SDS011;41893;55.868;37.632;2022-08-27T01:35:46;74.40;;;31.30;;
56013;SDS011;41893;55.868;37.632;2022-08-27T01:38:14;57.63;;;30.10;;
56013;SDS011;41893;55.868;37.632;2022-08-27T01:40:40;68.93;;;32.97;;
56013;SDS011;41893;55.868;37.632;2022-08-27T01:43:06;62.20;;;31.15;;
56013;SDS011;41893;55.868;37.632;2022-08-27T01:45:34;57.08;;;29.85;;
56013;SDS011;41893;55.868;37.632;2022-08-27T01:48:08;63.78;;;31.73;;
56013;SDS011;41893;55.868;37.632;2022-08-27T01:50:36;67.57;;;32.17;;
56013;SDS011;41893;55.868;37.632;2022-08-27T01:53:05;68.68;;;33.00;;
56013;SDS011;41893;55.868;37.632;2022-08-27T01:55:33;74.00;;;34.65;;
56013;SDS011;41893;55.868;37.632;2022-08-27T01:58:02;71.55;;;33.90;;
56013;SDS011;41893;55.868;37.632;2022-08-27T02:00:30;71.03;;;33.78;;
56013;SDS011;41893;55.868;37.632;2022-08-27T02:02:59;82.60;;;35.90;;
56013;SDS011;41893;55.868;37.632;2022-08-27T02:05:26;63.33;;;33.15;;
56013;SDS011;41893;55.868;37.632;2022-08-27T02:07:53;70.30;;;34.65;;
56013;SDS011;41893;55.868;37.632;2022-08-27T02:10:22;81.15;;;35.13;;
56013;SDS011;41893;55.868;37.632;2022-08-27T02:12:57;72.15;;;36.38;;
56013;SDS011;41893;55.868;37.632;2022-08-27T02:15:23;78.45;;;36.30;;
56013;SDS011;41893;55.868;37.632;2022-08-27T02:17:49;83.90;;;38.17;;
56013;SDS011;41893;55.868;37.632;2022-08-27T02:20:16;80.28;;;39.55;;
56013;SDS011;41893;55.868;37.632;2022-08-27T02:22:43;75.72;;;39.78;;
56013;SDS011;41893;55.868;37.632;2022-08-27T02:25:09;76.10;;;40.10;;
56013;SDS011;41893;55.868;37.632;2022-08-27T02:27:38;93.93;;;43.78;;
56013;SDS011;41893;55.868;37.632;2022-08-27T02:30:06;67.00;;;39.47;;
56013;SDS011;41893;55.868;37.632;2022-08-27T02:32:35;84.53;;;41.80;;
56013;SDS011;41893;55.868;37.632;2022-08-27T02:35:01;70.45;;;41.72;;
56013;SDS011;41893;55.868;37.632;2022-08-27T02:37:28;69.63;;;40.63;;
56013;SDS011;41893;55.868;37.632;2022-08-27T02:39:53;75.90;;;42.55;;
56013;SDS011;41893;55.868;37.632;2022-08-27T02:42:19;72.80;;;45.88;;
56013;SDS011;41893;55.868;37.632;2022-08-27T02:44:45;88.82;;;46.20;;
56013;SDS011;41893;55.868;37.632;2022-08-27T02:47:11;87.45;;;45.25;;
56013;SDS011;41893;55.868;37.632;2022-08-27T02:49:37;93.07;;;48.20;;
56013;SDS011;41893;55.868;37.632;2022-08-27T02:52:02;102.55;;;49.35;;
56013;SDS011;41893;55.868;37.632;2022-08-27T02:54:28;94.75;;;50.13;;
56013;SDS011;41893;55.868;37.632;2022-08-27T02:56:54;91.13;;;49.75;;
56013;SDS011;41893;55.868;37.632;2022-08-27T02:59:20;98.93;;;50.40;;
56013;SDS011;41893;55.868;37.632;2022-08-27T03:01:47;112.10;;;53.80;;
56013;SDS011;41893;55.868;37.632;2022-08-27T03:04:13;84.93;;;48.90;;
56013;SDS011;41893;55.868;37.632;2022-08-27T03:06:39;100.18;;;55.63;;
56013;SDS011;41893;55.868;37.632;2022-08-27T03:09:05;102.70;;;58.08;;
56013;SDS011;41893;55.868;37.632;2022-08-27T03:11:31;116.22;;;60.92;;
56013;SDS011;41893;55.868;37.632;2022-08-27T03:13:58;107.90;;;56.80;;
56013;SDS011;41893;55.868;37.632;2022-08-27T03:16:24;100.30;;;58.92;;
56013;SDS011;41893;55.868;37.632;2022-08-27T03:18:50;104.60;;;63.95;;
56013;SDS011;41893;55.868;37.632;2022-08-27T03:21:17;104.53;;;61.75;;
56013;SDS011;41893;55.868;37.632;2022-08-27T03:23:46;98.03;;;57.15;;
56013;SDS011;41893;55.868;37.632;2022-08-27T03:26:13;101.90;;;60.97;;
56013;SDS011;41893;55.868;37.632;2022-08-27T03:28:39;103.53;;;60.10;;
56013;SDS011;41893;55.868;37.632;2022-08-27T03:31:07;105.43;;;62.22;;
56013;SDS011;41893;55.868;37.632;2022-08-27T03:33:40;103.22;;;64.05;;
56013;SDS011;41893;55.868;37.632;2022-08-27T03:36:07;118.45;;;63.50;;
56013;SDS011;41893;55.868;37.632;2022-08-27T03:38:34;108.43;;;62.75;;
56013;SDS011;41893;55.868;37.632;2022-08-27T03:41:03;104.85;;;65.43;;
56013;SDS011;41893;55.868;37.632;2022-08-27T03:43:30;126.53;;;67.88;;
56013;SDS011;41893;55.868;37.632;2022-08-27T03:45:56;120.95;;;72.45;;
56013;SDS011;41893;55.868;37.632;2022-08-27T03:48:22;125.20;;;73.75;;
56013;SDS011;41893;55.868;37.632;2022-08-27T03:50:48;128.25;;;80.45;;
56013;SDS011;41893;55.868;37.632;2022-08-27T03:53:15;147.35;;;83.63;;
56013;SDS011;41893;55.868;37.632;2022-08-27T03:55:44;148.32;;;86.13;;
56013;SDS011;41893;55.868;37.632;2022-08-27T03:58:11;145.60;;;86.53;;
56013;SDS011;41893;55.868;37.632;2022-08-27T04:00:38;138.13;;;82.28;;
56013;SDS011;41893;55.868;37.632;2022-08-27T04:03:05;140.95;;;83.28;;
56013;SDS011;41893;55.868;37.632;2022-08-27T04:05:31;134.90;;;84.97;;
56013;SDS011;41893;55.868;37.632;2022-08-27T04:07:58;156.48;;;93.13;;
56013;SDS011;41893;55.868;37.632;2022-08-27T04:10:24;147.38;;;100.22;;
56013;SDS011;41893;55.868;37.632;2022-08-27T04:12:51;154.18;;;97.72;;
56013;SDS011;41893;55.868;37.632;2022-08-27T04:15:17;151.02;;;91.88;;
56013;SDS011;41893;55.868;37.632;2022-08-27T04:17:43;155.02;;;103.10;;
56013;SDS011;41893;55.868;37.632;2022-08-27T04:20:09;158.48;;;98.45;;
56013;SDS011;41893;55.868;37.632;2022-08-27T04:22:35;157.80;;;103.70;;
56013;SDS011;41893;55.868;37.632;2022-08-27T04:25:01;174.30;;;113.30;;
56013;SDS011;41893;55.868;37.632;2022-08-27T04:27:28;187.90;;;125.50;;
56013;SDS011;41893;55.868;37.632;2022-08-27T04:29:54;180.45;;;114.32;;
56013;SDS011;41893;55.868;37.632;2022-08-27T04:32:21;190.07;;;120.75;;
56013;SDS011;41893;55.868;37.632;2022-08-27T04:34:47;191.77;;;121.63;;
56013;SDS011;41893;55.868;37.632;2022-08-27T04:37:13;209.25;;;131.85;;
56013;SDS011;41893;55.868;37.632;2022-08-27T04:39:39;202.65;;;130.77;;
56013;SDS011;41893;55.868;37.632;2022-08-27T04:42:04;210.52;;;140.30;;
56013;SDS011;41893;55.868;37.632;2022-08-27T04:44:31;219.60;;;132.30;;
56013;SDS011;41893;55.868;37.632;2022-08-27T04:46:59;218.20;;;129.40;;
56013;SDS011;41893;55.868;37.632;2022-08-27T04:49:26;202.95;;;140.48;;
56013;SDS011;41893;55.868;37.632;2022-08-27T04:51:52;221.43;;;143.60;;
56013;SDS011;41893;55.868;37.632;2022-08-27T04:54:18;201.88;;;135.13;;
56013;SDS011;41893;55.868;37.632;2022-08-27T04:56:44;219.23;;;147.27;;
56013;SDS011;41893;55.868;37.632;2022-08-27T04:59:10;213.73;;;145.52;;
56013;SDS011;41893;55.868;37.632;2022-08-27T05:01:36;207.00;;;146.18;;
56013;SDS011;41893;55.868;37.632;2022-08-27T05:04:03;221.85;;;144.98;;
56013;SDS011;41893;55.868;37.632;2022-08-27T05:06:29;211.38;;;146.80;;
56013;SDS011;41893;55.868;37.632;2022-08-27T05:08:55;208.10;;;133.68;;
56013;SDS011;41893;55.868;37.632;2022-08-27T05:11:22;232.32;;;149.45;;
56013;SDS011;41893;55.868;37.632;2022-08-27T05:13:51;318.05;;;150.93;;
56013;SDS011;41893;55.868;37.632;2022-08-27T05:16:18;239.43;;;148.85;;
56013;SDS011;41893;55.868;37.632;2022-08-27T05:18:46;218.43;;;144.90;;
56013;SDS011;41893;55.868;37.632;2022-08-27T05:21:15;242.13;;;152.63;;
56013;SDS011;41893;55.868;37.632;2022-08-27T05:23:48;234.40;;;146.02;;
56013;SDS011;41893;55.868;37.632;2022-08-27T05:26:15;223.88;;;145.15;;
56013;SDS011;41893;55.868;37.632;2022-08-27T05:28:40;239.57;;;147.88;;
56013;SDS011;41893;55.868;37.632;2022-08-27T05:31:07;231.25;;;144.40;;
56013;SDS011;41893;55.868;37.632;2022-08-27T05:33:34;225.10;;;148.50;;
56013;SDS011;41893;55.868;37.632;2022-08-27T05:36:02;190.63;;;138.23;;
56013;SDS011;41893;55.868;37.632;2022-08-27T05:38:29;211.40;;;139.48;;
56013;SDS011;41893;55.868;37.632;2022-08-27T05:41:06;206.45;;;140.27;;
56013;SDS011;41893;55.868;37.632;2022-08-27T05:43:40;202.38;;;139.30;;
56013;SDS011;41893;55.868;37.632;2022-08-27T05:46:08;217.57;;;141.27;;
56013;SDS011;41893;55.868;37.632;2022-08-27T05:48:36;190.80;;;137.73;;
56013;SDS011;41893;55.868;37.632;2022-08-27T05:51:20;192.27;;;130.20;;
56013;SDS011;41893;55.868;37.632;2022-08-27T05:53:47;199.60;;;130.15;;
56013;SDS011;41893;55.868;37.632;2022-08-27T05:56:15;199.02;;;132.82;;
56013;SDS011;41893;55.868;37.632;2022-08-27T05:58:42;215.63;;;135.80;;
56013;SDS011;41893;55.868;37.632;2022-08-27T06:01:28;198.40;;;127.82;;
56013;SDS011;41893;55.868;37.632;2022-08-27T06:03:55;193.27;;;125.85;;
56013;SDS011;41893;55.868;37.632;2022-08-27T06:06:21;189.82;;;126.47;;
56013;SDS011;41893;55.868;37.632;2022-08-27T06:08:47;187.60;;;119.68;;
56013;SDS011;41893;55.868;37.632;2022-08-27T06:11:15;189.00;;;120.82;;
56013;SDS011;41893;55.868;37.632;2022-08-27T06:13:43;193.38;;;123.43;;
56013;SDS011;41893;55.868;37.632;2022-08-27T06:16:11;182.07;;;119.15;;
56013;SDS011;41893;55.868;37.632;2022-08-27T06:18:40;174.13;;;119.60;;
56013;SDS011;41893;55.868;37.632;2022-08-27T06:21:07;168.65;;;114.60;;
56013;SDS011;41893;55.868;37.632;2022-08-27T06:23:34;193.23;;;120.75;;
56013;SDS011;41893;55.868;37.632;2022-08-27T06:26:00;204.52;;;123.22;;
56013;SDS011;41893;55.868;37.632;2022-08-27T06:28:27;202.52;;;121.38;;
56013;SDS011;41893;55.868;37.632;2022-08-27T06:31:03;194.93;;;125.55;;
56013;SDS011;41893;55.868;37.632;2022-08-27T06:33:34;176.82;;;115.47;;
56013;SDS011;41893;55.868;37.632;2022-08-27T06:36:01;193.63;;;125.72;;
56013;SDS011;41893;55.868;37.632;2022-08-27T06:38:30;185.38;;;116.28;;
56013;SDS011;41893;55.868;37.632;2022-08-27T06:40:56;196.23;;;115.68;;
56013;SDS011;41893;55.868;37.632;2022-08-27T06:43:22;174.95;;;111.63;;
56013;SDS011;41893;55.868;37.632;2022-08-27T06:45:49;162.45;;;104.07;;
56013;SDS011;41893;55.868;37.632;2022-08-27T06:48:15;177.88;;;103.53;;
56013;SDS011;41893;55.868;37.632;2022-08-27T06:50:41;185.07;;;107.47;;
56013;SDS011;41893;55.868;37.632;2022-08-27T06:53:07;168.52;;;94.85;;
56013;SDS011;41893;55.868;37.632;2022-08-27T06:55:40;140.98;;;89.43;;
56013;SDS011;41893;55.868;37.632;2022-08-27T06:58:07;159.57;;;90.88;;
56013;SDS011;41893;55.868;37.632;2022-08-27T07:00:33;153.77;;;90.63;;
56013;SDS011;41893;55.868;37.632;2022-08-27T07:02:59;162.05;;;98.72;;
56013;SDS011;41893;55.868;37.632;2022-08-27T07:05:25;150.05;;;92.15;;
56013;SDS011;41893;55.868;37.632;2022-08-27T07:07:51;154.18;;;89.95;;
56013;SDS011;41893;55.868;37.632;2022-08-27T07:10:17;149.48;;;91.57;;
56013;SDS011;41893;55.868;37.632;2022-08-27T07:12:43;148.48;;;92.97;;
56013;SDS011;41893;55.868;37.632;2022-08-27T07:15:09;164.88;;;98.20;;
56013;SDS011;41893;55.868;37.632;2022-08-27T07:17:35;171.65;;;91.22;;
56013;SDS011;41893;55.868;37.632;2022-08-27T07:20:01;143.02;;;94.03;;
56013;SDS011;41893;55.868;37.632;2022-08-27T07:22:28;159.20;;;87.30;;
56013;SDS011;41893;55.868;37.632;2022-08-27T07:24:53;150.60;;;88.07;;
56013;SDS011;41893;55.868;37.632;2022-08-27T07:27:19;141.05;;;87.43;;
56013;SDS011;41893;55.868;37.632;2022-08-27T07:29:46;149.15;;;90.70;;
56013;SDS011;41893;55.868;37.632;2022-08-27T07:32:12;134.98;;;90.43;;
56013;SDS011;41893;55.868;37.632;2022-08-27T07:34:37;130.30;;;86.10;;
56013;SDS011;41893;55.868;37.632;2022-08-27T07:37:03;149.35;;;90.18;;
56013;SDS011;41893;55.868;37.632;2022-08-27T07:39:29;134.82;;;90.03;;
56013;SDS011;41893;55.868;37.632;2022-08-27T07:41:55;152.07;;;93.88;;
56013;SDS011;41893;55.868;37.632;2022-08-27T07:44:40;155.43;;;93.90;;
56013;SDS011;41893;55.868;37.632;2022-08-27T07:47:06;162.95;;;99.25;;
56013;SDS011;41893;55.868;37.632;2022-08-27T07:49:32;153.00;;;102.85;;
56013;SDS011;41893;55.868;37.632;2022-08-27T07:51:59;162.38;;;98.32;;
56013;SDS011;41893;55.868;37.632;2022-08-27T07:54:26;149.48;;;91.47;;
56013;SDS011;41893;55.868;37.632;2022-08-27T07:56:52;153.13;;;100.18;;
56013;SDS011;41893;55.868;37.632;2022-08-27T07:59:19;175.52;;;99.43;;
56013;SDS011;41893;55.868;37.632;2022-08-27T08:01:44;159.00;;;98.30;;
56013;SDS011;41893;55.868;37.632;2022-08-27T08:04:13;170.40;;;100.88;;
56013;SDS011;41893;55.868;37.632;2022-08-27T08:06:40;150.32;;;97.78;;
56013;SDS011;41893;55.868;37.632;2022-08-27T08:09:06;165.50;;;102.43;;
56013;SDS011;41893;55.868;37.632;2022-08-27T08:11:32;173.52;;;95.78;;
56013;SDS011;41893;55.868;37.632;2022-08-27T08:13:58;146.88;;;95.28;;
56013;SDS011;41893;55.868;37.632;2022-08-27T08:16:25;161.73;;;96.55;;
56013;SDS011;41893;55.868;37.632;2022-08-27T08:18:52;149.40;;;92.88;;
56013;SDS011;41893;55.868;37.632;2022-08-27T08:21:18;149.18;;;93.35;;
56013;SDS011;41893;55.868;37.632;2022-08-27T08:23:44;146.63;;;90.68;;
56013;SDS011;41893;55.868;37.632;2022-08-27T08:26:11;147.80;;;91.30;;
56013;SDS011;41893;55.868;37.632;2022-08-27T08:28:38;122.45;;;81.65;;
56013;SDS011;41893;55.868;37.632;2022-08-27T08:31:04;132.98;;;78.88;;
56013;SDS011;41893;55.868;37.632;2022-08-27T08:33:30;120.63;;;72.47;;
56013;SDS011;41893;55.868;37.632;2022-08-27T08:36:08;131.98;;;78.63;;
56013;SDS011;41893;55.868;37.632;2022-08-27T08:38:36;118.80;;;74.07;;
56013;SDS011;41893;55.868;37.632;2022-08-27T08:41:03;133.00;;;75.70;;
56013;SDS011;41893;55.868;37.632;2022-08-27T08:43:41;118.40;;;71.18;;
56013;SDS011;41893;55.868;37.632;2022-08-27T08:46:17;134.95;;;73.13;;
56013;SDS011;41893;55.868;37.632;2022-08-27T08:49:04;116.82;;;67.25;;
56013;SDS011;41893;55.868;37.632;2022-08-27T08:52:17;102.25;;;47.05;;
56013;SDS011;41893;55.868;37.632;2022-08-27T08:54:50;87.13;;;41.20;;
56013;SDS011;41893;55.868;37.632;2022-08-27T08:57:24;91.27;;;46.00;;
56013;SDS011;41893;55.868;37.632;2022-08-27T09:00:04;117.15;;;55.10;;
56013;SDS011;41893;55.868;37.632;2022-08-27T09:02:38;101.57;;;57.50;;
56013;SDS011;41893;55.868;37.632;2022-08-27T09:05:05;122.65;;;59.83;;
56013;SDS011;41893;55.868;37.632;2022-08-27T09:07:36;117.65;;;64.63;;
56013;SDS011;41893;55.868;37.632;2022-08-27T09:12:43;113.20;;;62.80;;
56013;SDS011;41893;55.868;37.632;2022-08-27T09:15:18;112.97;;;59.97;;
56013;SDS011;41893;55.868;37.632;2022-08-27T09:17:46;102.88;;;57.40;;
56013;SDS011;41893;55.868;37.632;2022-08-27T09:20:13;108.72;;;56.83;;
56013;SDS011;41893;55.868;37.632;2022-08-27T09:25:28;90.28;;;47.13;;
56013;SDS011;41893;55.868;37.632;2022-08-27T09:27:58;64.60;;;39.03;;
56013;SDS011;41893;55.868;37.632;2022-08-27T09:30:59;83.70;;;44.05;;
56013;SDS011;41893;55.868;37.632;2022-08-27T09:33:29;95.13;;;50.28;;
56013;SDS011;41893;55.868;37.632;2022-08-27T09:35:59;106.88;;;47.88;;
56013;SDS011;41893;55.868;37.632;2022-08-27T09:38:29;96.47;;;50.17;;
56013;SDS011;41893;55.868;37.632;2022-08-27T09:41:06;68.75;;;36.88;;
56013;SDS011;41893;55.868;37.632;2022-08-27T09:46:21;62.78;;;29.52;;
56013;SDS011;41893;55.868;37.632;2022-08-27T09:48:48;53.85;;;28.10;;
56013;SDS011;41893;55.868;37.632;2022-08-27T09:51:18;72.13;;;34.13;;
56013;SDS011;41893;55.868;37.632;2022-08-27T10:01:32;54.30;;;27.98;;
56013;SDS011;41893;55.868;37.632;2022-08-27T10:04:09;52.70;;;26.27;;
56013;SDS011;41893;55.868;37.632;2022-08-27T10:12:05;45.17;;;23.58;;
56013;SDS011;41893;55.868;37.632;2022-08-27T10:14:49;50.92;;;24.67;;
56013;SDS011;41893;55.868;37.632;2022-08-27T10:31:20;49.60;;;23.08;;
56013;SDS011;41893;55.868;37.632;2022-08-27T10:33:52;24.55;;;18.27;;
56013;SDS011;41893;55.868;37.632;2022-08-27T10:36:34;34.17;;;14.50;;
56013;SDS011;41893;55.868;37.632;2022-08-27T10:39:32;29.75;;;18.48;;
56013;SDS011;41893;55.868;37.632;2022-08-27T10:47:42;48.95;;;22.50;;
56013;SDS011;41893;55.868;37.632;2022-08-27T10:53:00;50.55;;;23.17;;
56013;SDS011;41893;55.868;37.632;2022-08-27T10:55:39;41.78;;;23.48;;
56013;SDS011;41893;55.868;37.632;2022-08-27T11:03:52;39.17;;;23.63;;
56013;SDS011;41893;55.868;37.632;2022-08-27T11:09:16;47.13;;;23.38;;
56013;SDS011;41893;55.868;37.632;2022-08-27T11:12:09;62.15;;;24.67;;
56013;SDS011;41893;55.868;37.632;2022-08-27T11:17:40;29.10;;;18.88;;
56013;SDS011;41893;55.868;37.632;2022-08-27T11:20:10;36.47;;;16.27;;
56013;SDS011;41893;55.868;37.632;2022-08-27T11:27:48;27.80;;;13.13;;
56013;SDS011;41893;55.868;37.632;2022-08-27T11:30:34;28.95;;;12.80;;
56013;SDS011;41893;55.868;37.632;2022-08-27T11:43:49;23.65;;;13.13;;
56013;SDS011;41893;55.868;37.632;2022-08-27T11:46:23;24.27;;;14.40;;
56013;SDS011;41893;55.868;37.632;2022-08-27T11:48:56;27.33;;;13.45;;
56013;SDS011;41893;55.868;37.632;2022-08-27T11:51:26;24.17;;;13.77;;
56013;SDS011;41893;55.868;37.632;2022-08-27T11:53:58;29.63;;;14.35;;
56013;SDS011;41893;55.868;37.632;2022-08-27T12:01:41;17.77;;;15.50;;
56013;SDS011;41893;55.868;37.632;2022-08-27T12:07:06;39.30;;;17.25;;
56013;SDS011;41893;55.868;37.632;2022-08-27T12:12:24;29.15;;;15.80;;
56013;SDS011;41893;55.868;37.632;2022-08-27T12:15:18;33.42;;;17.55;;
56013;SDS011;41893;55.868;37.632;2022-08-27T12:29:19;29.75;;;17.63;;
56013;SDS011;41893;55.868;37.632;2022-08-27T12:37:32;49.63;;;16.88;;
56013;SDS011;41893;55.868;37.632;2022-08-27T12:40:02;35.67;;;22.40;;
56013;SDS011;41893;55.868;37.632;2022-08-27T12:42:36;33.22;;;18.25;;
56013;SDS011;41893;55.868;37.632;2022-08-27T12:45:02;45.33;;;17.17;;
56013;SDS011;41893;55.868;37.632;2022-08-27T12:47:28;36.83;;;16.20;;
56013;SDS011;41893;55.868;37.632;2022-08-27T12:50:03;35.30;;;16.55;;
56013;SDS011;41893;55.868;37.632;2022-08-27T12:52:49;41.78;;;19.20;;
56013;SDS011;41893;55.868;37.632;2022-08-27T13:00:26;48.42;;;19.85;;
56013;SDS011;41893;55.868;37.632;2022-08-27T13:05:43;33.45;;;16.08;;
56013;SDS011;41893;55.868;37.632;2022-08-27T13:08:21;28.02;;;16.95;;
56013;SDS011;41893;55.868;37.632;2022-08-27T13:10:48;33.65;;;17.85;;
56013;SDS011;41893;55.868;37.632;2022-08-27T13:13:16;29.75;;;16.20;;
56013;SDS011;41893;55.868;37.632;2022-08-27T13:15:52;42.10;;;19.60;;
56013;SDS011;41893;55.868;37.632;2022-08-27T13:18:25;34.42;;;17.95;;
56013;SDS011;41893;55.868;37.632;2022-08-27T13:20:59;39.83;;;20.52;;
56013;SDS011;41893;55.868;37.632;2022-08-27T13:23:47;40.20;;;19.60;;
56013;SDS011;41893;55.868;37.632;2022-08-27T13:26:35;27.88;;;18.52;;
56013;SDS011;41893;55.868;37.632;2022-08-27T13:29:05;36.22;;;18.10;;
56013;SDS011;41893;55.868;37.632;2022-08-27T13:31:33;31.98;;;16.92;;
56013;SDS011;41893;55.868;37.632;2022-08-27T13:33:59;25.77;;;18.35;;
56013;SDS011;41893;55.868;37.632;2022-08-27T13:36:35;32.00;;;18.15;;
56013;SDS011;41893;55.868;37.632;2022-08-27T13:39:31;36.78;;;20.85;;
56013;SDS011;41893;55.868;37.632;2022-08-27T13:41:58;41.05;;;17.95;;
56013;SDS011;41893;55.868;37.632;2022-08-27T13:44:30;48.70;;;19.55;;
56013;SDS011;41893;55.868;37.632;2022-08-27T13:47:05;20.63;;;15.90;;
56013;SDS011;41893;55.868;37.632;2022-08-27T13:49:46;38.65;;;17.15;;
56013;SDS011;41893;55.868;37.632;2022-08-27T13:54:41;46.38;;;17.20;;
56013;SDS011;41893;55.868;37.632;2022-08-27T13:57:21;33.95;;;16.42;;
56013;SDS011;41893;55.868;37.632;2022-08-27T13:59:54;34.40;;;16.98;;
56013;SDS011;41893;55.868;37.632;2022-08-27T14:02:23;47.58;;;19.70;;
56013;SDS011;41893;55.868;37.632;2022-08-27T14:05:10;37.03;;;17.85;;
56013;SDS011;41893;55.868;37.632;2022-08-27T14:10:39;33.35;;;17.73;;
56013;SDS011;41893;55.868;37.632;2022-08-27T14:13:09;27.77;;;16.75;;
56013;SDS011;41893;55.868;37.632;2022-08-27T14:18:35;46.28;;;20.15;;
56013;SDS011;41893;55.868;37.632;2022-08-27T14:21:03;35.75;;;18.52;;
56013;SDS011;41893;55.868;37.632;2022-08-27T14:23:31;38.83;;;19.63;;
56013;SDS011;41893;55.868;37.632;2022-08-27T14:25:57;36.35;;;19.02;;
56013;SDS011;41893;55.868;37.632;2022-08-27T14:28:27;37.75;;;19.45;;
56013;SDS011;41893;55.868;37.632;2022-08-27T14:30:53;40.72;;;18.52;;
56013;SDS011;41893;55.868;37.632;2022-08-27T14:33:18;36.53;;;17.85;;
56013;SDS011;41893;55.868;37.632;2022-08-27T14:35:44;40.30;;;20.40;;
56013;SDS011;41893;55.868;37.632;2022-08-27T14:38:15;25.08;;;17.83;;
56013;SDS011;41893;55.868;37.632;2022-08-27T14:40:44;50.03;;;20.80;;
56013;SDS011;41893;55.868;37.632;2022-08-27T14:43:14;31.42;;;18.17;;
56013;SDS011;41893;55.868;37.632;2022-08-27T14:45:46;36.13;;;18.73;;
56013;SDS011;41893;55.868;37.632;2022-08-27T14:48:18;49.78;;;20.08;;
56013;SDS011;41893;55.868;37.632;2022-08-27T14:50:47;45.90;;;19.75;;
56013;SDS011;41893;55.868;37.632;2022-08-27T14:53:13;35.40;;;19.55;;
56013;SDS011;41893;55.868;37.632;2022-08-27T14:55:39;38.35;;;20.17;;
56013;SDS011;41893;55.868;37.632;2022-08-27T14:58:05;48.60;;;19.65;;
56013;SDS011;41893;55.868;37.632;2022-08-27T15:00:30;63.60;;;20.40;;
56013;SDS011;41893;55.868;37.632;2022-08-27T15:02:56;48.60;;;20.58;;
56013;SDS011;41893;55.868;37.632;2022-08-27T15:05:23;37.90;;;21.08;;
56013;SDS011;41893;55.868;37.632;2022-08-27T15:07:50;46.03;;;21.00;;
56013;SDS011;41893;55.868;37.632;2022-08-27T15:10:22;61.00;;;20.55;;
56013;SDS011;41893;55.868;37.632;2022-08-27T15:12:48;46.83;;;21.42;;
56013;SDS011;41893;55.868;37.632;2022-08-27T15:15:14;59.17;;;22.42;;
56013;SDS011;41893;55.868;37.632;2022-08-27T15:17:41;52.60;;;22.45;;
56013;SDS011;41893;55.868;37.632;2022-08-27T15:20:08;45.13;;;21.58;;
56013;SDS011;41893;55.868;37.632;2022-08-27T15:22:40;44.35;;;20.05;;
56013;SDS011;41893;55.868;37.632;2022-08-27T15:25:08;37.05;;;21.35;;
56013;SDS011;41893;55.868;37.632;2022-08-27T15:27:34;44.85;;;21.17;;
56013;SDS011;41893;55.868;37.632;2022-08-27T15:30:01;56.38;;;22.65;;
56013;SDS011;41893;55.868;37.632;2022-08-27T15:32:33;38.15;;;21.20;;
56013;SDS011;41893;55.868;37.632;2022-08-27T15:35:18;69.10;;;24.40;;
56013;SDS011;41893;55.868;37.632;2022-08-27T15:37:47;64.15;;;22.65;;
56013;SDS011;41893;55.868;37.632;2022-08-27T15:40:16;63.53;;;22.55;;
56013;SDS011;41893;55.868;37.632;2022-08-27T15:42:43;54.15;;;23.17;;
56013;SDS011;41893;55.868;37.632;2022-08-27T15:45:10;50.55;;;23.05;;
56013;SDS011;41893;55.868;37.632;2022-08-27T15:47:50;40.97;;;21.63;;
56013;SDS011;41893;55.868;37.632;2022-08-27T15:50:16;49.50;;;22.17;;
56013;SDS011;41893;55.868;37.632;2022-08-27T15:52:44;56.95;;;22.23;;
56013;SDS011;41893;55.868;37.632;2022-08-27T15:55:20;42.92;;;23.77;;
56013;SDS011;41893;55.868;37.632;2022-08-27T15:57:50;49.05;;;23.42;;
56013;SDS011;41893;55.868;37.632;2022-08-27T16:00:17;72.80;;;22.70;;
56013;SDS011;41893;55.868;37.632;2022-08-27T16:02:43;55.55;;;23.02;;
56013;SDS011;41893;55.868;37.632;2022-08-27T16:05:11;66.20;;;23.15;;
56013;SDS011;41893;55.868;37.632;2022-08-27T16:07:42;49.85;;;24.38;;
56013;SDS011;41893;55.868;37.632;2022-08-27T16:10:09;65.22;;;23.95;;
56013;SDS011;41893;55.868;37.632;2022-08-27T16:12:36;84.53;;;24.35;;